createdAt,value
2023-01-25T00:01:39.327Z,1.50
2023-01-25T00:04:05.971Z,1.50
2023-01-25T00:06:32.696Z,1.50
2023-01-25T00:08:59.393Z,1.50
2023-01-25T00:11:26.182Z,1.40
2023-01-25T00:13:58.784Z,1.40
2023-01-25T00:16:28.314Z,1.40
2023-01-25T00:18:57.163Z,1.40
2023-01-25T00:21:25.414Z,1.40
2023-01-25T00:23:55.275Z,1.40
2023-01-25T00:26:22.340Z,1.40
2023-01-25T00:28:50.985Z,1.40
2023-01-25T00:31:45.113Z,1.40
2023-01-25T00:35:01.589Z,1.40
2023-01-25T00:37:52.801Z,1.40
2023-01-25T00:40:19.561Z,1.40
2023-01-25T00:42:46.312Z,1.40
2023-01-25T00:45:16.056Z,1.40
2023-01-25T00:47:45.519Z,1.40
2023-01-25T00:50:12.226Z,1.40
2023-01-25T00:52:42.321Z,1.40
2023-01-25T00:55:09.702Z,1.40
2023-01-25T00:57:36.704Z,1.40
2023-01-25T01:00:04.474Z,1.40
2023-01-25T01:02:31.926Z,1.40
2023-01-25T01:04:58.762Z,1.40
2023-01-25T01:07:34.747Z,1.40
2023-01-25T01:10:01.420Z,1.40
2023-01-25T01:12:35.525Z,1.40
2023-01-25T01:15:58.465Z,1.30
2023-01-25T01:19:21.853Z,1.40
2023-01-25T01:21:48.664Z,1.40
2023-01-25T01:24:17.921Z,1.40
2023-01-25T01:26:44.790Z,1.40
2023-01-25T01:29:11.431Z,1.30
2023-01-25T01:31:38.240Z,1.30
2023-01-25T01:34:05.009Z,1.30
2023-01-25T01:36:32.406Z,1.30
2023-01-25T01:38:59.907Z,1.30
2023-01-25T01:41:29.487Z,1.30
2023-01-25T01:43:59.286Z,1.30
2023-01-25T01:46:29.273Z,1.30
2023-01-25T01:49:03.193Z,1.30
2023-01-25T01:51:44.811Z,1.30
2023-01-25T01:54:18.183Z,1.30
2023-01-25T01:56:59.944Z,1.30
2023-01-25T01:59:31.764Z,1.30
2023-01-25T02:01:58.578Z,1.30
2023-01-25T02:04:27.291Z,1.30
2023-01-25T02:07:18.428Z,1.30
2023-01-25T02:09:45.454Z,1.30
2023-01-25T02:12:16.027Z,1.30
2023-01-25T02:14:48.789Z,1.30
2023-01-25T02:17:15.630Z,1.30
2023-01-25T02:20:08.280Z,1.30
2023-01-25T02:22:47.159Z,1.30
2023-01-25T02:25:16.637Z,1.40
2023-01-25T02:27:57.764Z,1.40
2023-01-25T02:30:27.440Z,1.40
2023-01-25T02:32:57.010Z,1.40
2023-01-25T02:35:38.581Z,1.40
2023-01-25T02:38:06.302Z,1.40
2023-01-25T02:40:41.014Z,1.40
2023-01-25T02:43:10.990Z,1.40
2023-01-25T02:45:37.741Z,1.40
2023-01-25T02:48:14.886Z,1.40
2023-01-25T02:50:41.778Z,1.40
2023-01-25T02:53:08.477Z,1.40
2023-01-25T02:55:35.337Z,1.40
2023-01-25T02:58:01.984Z,1.40
2023-01-25T03:00:28.809Z,1.40
2023-01-25T03:02:58.614Z,1.30
2023-01-25T03:05:28.436Z,1.30
2023-01-25T03:07:55.100Z,1.30
2023-01-25T03:10:21.730Z,1.30
2023-01-25T03:12:48.374Z,1.30
2023-01-25T03:15:18.220Z,1.40
2023-01-25T03:17:44.933Z,1.40
2023-01-25T03:20:12.176Z,1.40
2023-01-25T03:22:38.900Z,1.40
2023-01-25T03:25:06.904Z,1.40
2023-01-25T03:27:33.787Z,1.40
2023-01-25T03:30:00.552Z,1.40
2023-01-25T03:32:29.643Z,1.50
2023-01-25T03:34:56.343Z,1.40
2023-01-25T03:37:23.127Z,1.40
2023-01-25T03:39:51.071Z,1.40
2023-01-25T03:42:20.337Z,1.40
2023-01-25T03:44:47.054Z,1.40
2023-01-25T03:47:14.100Z,1.40
2023-01-25T03:49:40.860Z,1.40
2023-01-25T03:52:07.764Z,1.40
2023-01-25T03:54:34.676Z,1.40
2023-01-25T03:57:01.339Z,1.50
2023-01-25T03:59:28.095Z,1.50
2023-01-25T04:01:54.865Z,1.40
2023-01-25T04:04:23.902Z,1.40
2023-01-25T04:06:50.676Z,1.40
2023-01-25T04:09:17.413Z,1.40
2023-01-25T04:11:44.090Z,1.40
2023-01-25T04:14:11.295Z,1.40
2023-01-25T04:16:38.016Z,1.40
2023-01-25T04:19:04.819Z,1.30
2023-01-25T04:21:31.690Z,1.30
2023-01-25T04:23:58.556Z,1.30
2023-01-25T04:26:25.511Z,1.30
2023-01-25T04:28:52.199Z,1.30
2023-01-25T04:31:18.984Z,1.30
2023-01-25T04:33:45.746Z,1.30
2023-01-25T04:36:12.559Z,1.30
2023-01-25T04:38:39.277Z,1.30
2023-01-25T04:41:06.316Z,1.30
2023-01-25T04:43:33.112Z,1.30
2023-01-25T04:46:02.728Z,1.30
2023-01-25T04:48:29.836Z,1.30
2023-01-25T04:50:56.508Z,1.20
2023-01-25T04:53:23.411Z,1.20
2023-01-25T04:55:54.667Z,1.20
2023-01-25T04:58:21.853Z,1.20
2023-01-25T05:00:48.867Z,1.20
2023-01-25T05:03:15.600Z,1.20
2023-01-25T05:05:47.510Z,1.20
2023-01-25T05:08:14.158Z,1.10
2023-01-25T05:10:40.873Z,1.10
2023-01-25T05:13:07.573Z,1.10
2023-01-25T05:15:34.241Z,1.10
2023-01-25T05:18:01.007Z,1.10
2023-01-25T05:20:27.664Z,1.10
2023-01-25T05:22:54.320Z,1.10
2023-01-25T05:25:39.977Z,1.10
2023-01-25T05:28:07.400Z,1.10
2023-01-25T05:30:34.494Z,1.00
2023-01-25T05:33:01.249Z,1.00
2023-01-25T05:35:27.959Z,1.00
2023-01-25T05:38:00.576Z,1.00
2023-01-25T05:40:27.562Z,1.00
2023-01-25T05:43:00.987Z,1.00
2023-01-25T05:45:27.700Z,1.00
2023-01-25T05:47:55.397Z,1.00
2023-01-25T05:50:23.243Z,1.10
2023-01-25T05:52:50.474Z,1.10
2023-01-25T05:55:17.761Z,1.10
2023-01-25T05:57:44.423Z,1.10
2023-01-25T06:00:11.894Z,1.10
2023-01-25T06:02:39.030Z,1.10
2023-01-25T06:05:06.141Z,1.00
2023-01-25T06:07:36.753Z,1.00
2023-01-25T06:10:05.319Z,1.00
2023-01-25T06:12:33.059Z,1.00
2023-01-25T06:14:59.718Z,1.00
2023-01-25T06:17:29.496Z,1.00
2023-01-25T06:19:56.170Z,1.00
2023-01-25T06:22:22.839Z,0.90
2023-01-25T06:24:49.601Z,1.00
2023-01-25T06:27:16.240Z,1.00
2023-01-25T06:29:43.623Z,1.00
2023-01-25T06:32:10.411Z,1.00
2023-01-25T06:34:39.743Z,1.00
2023-01-25T06:37:09.523Z,1.00
2023-01-25T06:39:39.571Z,0.90
2023-01-25T06:42:06.427Z,0.90
2023-01-25T06:44:33.101Z,0.90
2023-01-25T06:46:59.849Z,0.80
2023-01-25T06:49:26.539Z,0.90
2023-01-25T06:51:53.189Z,0.90
2023-01-25T06:54:21.735Z,0.90
2023-01-25T06:56:48.430Z,0.90
2023-01-25T06:59:16.046Z,0.80
2023-01-25T07:01:42.954Z,0.80
2023-01-25T07:04:14.286Z,0.80
2023-01-25T07:06:40.939Z,0.70
2023-01-25T07:09:10.436Z,0.70
2023-01-25T07:11:37.480Z,0.70
2023-01-25T07:14:05.083Z,0.70
2023-01-25T07:16:38.756Z,0.70
2023-01-25T07:19:13.326Z,0.70
2023-01-25T07:21:40.050Z,0.60
2023-01-25T07:24:06.985Z,0.60
2023-01-25T07:26:33.812Z,0.70
2023-01-25T07:29:00.696Z,0.70
2023-01-25T07:31:27.558Z,0.70
2023-01-25T07:33:57.147Z,0.70
2023-01-25T07:36:25.658Z,0.70
2023-01-25T07:38:57.867Z,0.70
2023-01-25T07:41:25.829Z,0.70
2023-01-25T07:43:53.106Z,0.70
2023-01-25T07:46:20.095Z,0.70
2023-01-25T07:48:52.208Z,0.70
2023-01-25T07:51:23.898Z,0.60
2023-01-25T07:53:56.187Z,0.60
2023-01-25T07:56:26.211Z,0.60
2023-01-25T07:58:54.717Z,0.60
2023-01-25T08:01:25.355Z,0.60
2023-01-25T08:03:52.478Z,0.60
2023-01-25T08:06:39.140Z,0.60
2023-01-25T08:09:13.232Z,0.60
2023-01-25T08:11:41.681Z,0.60
2023-01-25T08:14:09.061Z,0.60
2023-01-25T08:16:35.728Z,0.60
2023-01-25T08:19:03.622Z,0.60
2023-01-25T08:21:33.551Z,0.60
2023-01-25T08:24:09.616Z,0.60
2023-01-25T08:26:37.281Z,0.70
2023-01-25T08:29:11.874Z,0.70
2023-01-25T08:31:43.695Z,0.70
2023-01-25T08:34:10.939Z,0.70
2023-01-25T08:36:37.935Z,0.70
2023-01-25T08:39:07.691Z,0.70
2023-01-25T08:41:35.652Z,0.70
2023-01-25T08:44:02.677Z,0.70
2023-01-25T08:46:33.083Z,0.70
2023-01-25T08:49:01.293Z,0.70
2023-01-25T08:51:29.254Z,0.80
2023-01-25T08:53:57.937Z,0.80
2023-01-25T08:56:24.736Z,0.80
2023-01-25T08:58:51.538Z,0.80
2023-01-25T09:01:21.277Z,0.80
2023-01-25T09:03:50.328Z,0.80
2023-01-25T09:06:18.112Z,0.80
2023-01-25T09:08:44.896Z,0.80
2023-01-25T09:11:18.877Z,0.80
2023-01-25T09:13:45.982Z,0.90
2023-01-25T09:16:15.050Z,0.90
2023-01-25T09:18:44.707Z,0.90
2023-01-25T09:21:14.269Z,0.90
2023-01-25T09:23:50.643Z,0.90
2023-01-25T09:26:24.363Z,0.90
2023-01-25T09:28:52.940Z,0.90
2023-01-25T09:31:26.200Z,1.00
2023-01-25T09:33:53.475Z,1.00
2023-01-25T09:36:23.176Z,0.90
2023-01-25T09:38:49.813Z,1.00
2023-01-25T09:41:24.507Z,1.00
2023-01-25T09:44:14.653Z,1.00
2023-01-25T09:47:00.172Z,1.00
2023-01-25T09:49:36.241Z,1.00
2023-01-25T09:52:19.697Z,0.90
2023-01-25T09:54:47.612Z,1.00
2023-01-25T09:57:22.396Z,1.10
2023-01-25T09:59:52.075Z,1.10
2023-01-25T10:02:31.041Z,1.00
2023-01-25T10:05:07.775Z,1.10
2023-01-25T10:07:43.824Z,1.20
2023-01-25T10:10:24.615Z,1.30
2023-01-25T10:12:53.349Z,1.30
2023-01-25T10:15:26.643Z,1.40
2023-01-25T10:18:06.048Z,1.40
2023-01-25T10:20:43.984Z,1.30
2023-01-25T10:23:29.418Z,1.30
2023-01-25T10:26:01.104Z,1.20
2023-01-25T10:28:50.146Z,1.20
2023-01-25T10:31:19.899Z,1.30
2023-01-25T10:33:48.756Z,1.30
2023-01-25T10:36:20.498Z,1.30
2023-01-25T10:38:55.503Z,1.40
2023-01-25T10:41:28.842Z,1.30
2023-01-25T10:44:21.593Z,1.30
2023-01-25T10:47:00.921Z,1.30
2023-01-25T10:49:50.626Z,1.30
2023-01-25T10:52:20.350Z,1.40
2023-01-25T10:55:04.880Z,1.40
2023-01-25T10:57:32.745Z,1.10
2023-01-25T11:00:10.480Z,1.20
2023-01-25T11:02:48.579Z,1.10
2023-01-25T11:05:34.049Z,1.20
2023-01-25T11:08:39.910Z,1.20
2023-01-25T11:11:35.840Z,1.20
2023-01-25T11:14:15.813Z,1.10
2023-01-25T11:16:48.069Z,1.20
2023-01-25T11:19:28.131Z,1.20
2023-01-25T11:21:57.764Z,1.10
2023-01-25T11:24:35.958Z,1.10
2023-01-25T11:27:32.342Z,1.00
2023-01-25T11:30:18.878Z,1.00
2023-01-25T11:32:45.843Z,1.10
2023-01-25T11:35:17.924Z,1.10
2023-01-25T11:38:14.500Z,1.20
2023-01-25T11:41:18.340Z,1.30
2023-01-25T11:44:01.794Z,1.20
2023-01-25T11:47:03.830Z,1.20
2023-01-25T11:49:56.031Z,1.20
2023-01-25T11:52:48.982Z,1.10
2023-01-25T11:55:34.217Z,1.20
2023-01-25T11:58:28.994Z,1.20
2023-01-25T12:01:16.127Z,1.20
2023-01-25T12:03:51.630Z,1.20
2023-01-25T12:06:49.030Z,1.20
2023-01-25T12:09:19.518Z,1.30
2023-01-25T12:12:14.426Z,1.30
2023-01-25T12:14:49.943Z,1.20
2023-01-25T12:17:35.251Z,1.30
2023-01-25T12:20:28.137Z,1.20
2023-01-25T12:23:20.803Z,1.20
2023-01-25T12:26:15.479Z,1.20
2023-01-25T12:28:50.260Z,1.20
2023-01-25T12:31:26.930Z,1.30
2023-01-25T12:34:14.411Z,1.30
2023-01-25T12:36:45.322Z,1.30
2023-01-25T12:39:32.227Z,1.30
2023-01-25T12:42:06.102Z,1.20
2023-01-25T12:44:44.437Z,1.10
2023-01-25T12:47:15.173Z,1.10
2023-01-25T12:49:57.741Z,1.10
2023-01-25T12:52:36.782Z,1.00
2023-01-25T12:55:13.558Z,1.10
2023-01-25T12:57:52.121Z,1.10
2023-01-25T13:00:43.337Z,1.10
2023-01-25T13:03:29.459Z,1.00
2023-01-25T13:06:36.791Z,1.00
2023-01-25T13:09:09.752Z,1.00
2023-01-25T13:11:40.613Z,1.00
2023-01-25T13:14:16.285Z,1.00
2023-01-25T13:17:01.466Z,1.10
2023-01-25T13:19:45.082Z,1.00
2023-01-25T13:22:13.415Z,1.00
2023-01-25T13:25:03.760Z,0.90
2023-01-25T13:27:36.621Z,1.00
2023-01-25T13:30:15.529Z,0.90
2023-01-25T13:32:45.077Z,0.90
2023-01-25T13:35:26.737Z,0.90
2023-01-25T13:38:03.299Z,1.00
2023-01-25T13:40:38.557Z,1.00
2023-01-25T13:43:22.684Z,0.90
2023-01-25T13:45:53.313Z,0.80
2023-01-25T13:48:22.201Z,0.90
2023-01-25T13:50:57.259Z,0.80
2023-01-25T13:53:29.390Z,0.90
2023-01-25T13:55:57.858Z,0.80
2023-01-25T13:58:24.530Z,0.80
2023-01-25T14:01:15.669Z,0.90
2023-01-25T14:03:55.617Z,1.00
2023-01-25T14:06:29.445Z,0.90
2023-01-25T14:08:59.434Z,0.90
2023-01-25T14:11:31.943Z,0.90
2023-01-25T14:14:17.461Z,1.00
2023-01-25T14:16:44.411Z,0.90
2023-01-25T14:19:38.725Z,0.90
2023-01-25T14:22:31.364Z,0.70
2023-01-25T14:25:22.343Z,0.70
2023-01-25T14:28:02.274Z,0.60
2023-01-25T14:30:30.768Z,0.60
2023-01-25T14:33:02.815Z,0.60
2023-01-25T14:35:54.263Z,0.60
2023-01-25T14:38:49.600Z,0.70
2023-01-25T14:41:25.832Z,0.70
2023-01-25T14:43:59.290Z,0.70
2023-01-25T14:46:30.274Z,0.70
2023-01-25T14:49:14.857Z,0.70
2023-01-25T14:52:10.746Z,0.60
2023-01-25T14:54:58.659Z,0.60
2023-01-25T14:57:25.304Z,0.50
2023-01-25T14:59:53.757Z,0.60
2023-01-25T15:02:30.504Z,0.50
2023-01-25T15:05:15.221Z,0.50
2023-01-25T15:07:54.321Z,0.50
2023-01-25T15:10:25.177Z,0.50
2023-01-25T15:13:15.106Z,0.60
2023-01-25T15:15:58.486Z,0.60
2023-01-25T15:18:53.266Z,0.70
2023-01-25T15:21:31.381Z,0.50
2023-01-25T15:24:06.533Z,0.50
2023-01-25T15:26:37.587Z,0.40
2023-01-25T15:29:23.012Z,0.40
2023-01-25T15:31:50.983Z,0.40
2023-01-25T15:34:21.115Z,0.40
2023-01-25T15:36:47.872Z,0.30
2023-01-25T15:39:19.695Z,0.30
2023-01-25T15:41:47.272Z,0.40
2023-01-25T15:44:13.980Z,0.30
2023-01-25T15:46:45.006Z,0.30
2023-01-25T15:49:20.991Z,0.30
2023-01-25T15:51:50.213Z,0.20
2023-01-25T15:54:16.858Z,0.10
2023-01-25T15:56:45.333Z,0.10
2023-01-25T15:59:18.196Z,0.10
2023-01-25T16:01:45.354Z,0.10
2023-01-25T16:04:13.574Z,0.10
2023-01-25T16:06:50.108Z,0.10
2023-01-25T16:09:21.486Z,0.20
2023-01-25T16:11:51.863Z,0.20
2023-01-25T16:14:19.187Z,0.20
2023-01-25T16:16:50.900Z,0.20
2023-01-25T16:19:20.471Z,0.20
2023-01-25T16:21:47.271Z,0.20
2023-01-25T16:24:16.576Z,0.20
2023-01-25T16:26:51.732Z,0.20
2023-01-25T16:29:21.841Z,0.20
2023-01-25T16:31:49.073Z,0.20
2023-01-25T16:34:15.897Z,0.20
2023-01-25T16:36:47.675Z,0.20
2023-01-25T16:39:22.798Z,0.10
2023-01-25T16:41:50.112Z,0.10
2023-01-25T16:44:17.421Z,0.10
2023-01-25T16:46:44.342Z,0.10
2023-01-25T16:49:16.538Z,0.10
2023-01-25T16:51:45.270Z,0.00
2023-01-25T16:54:12.337Z,0.00
2023-01-25T16:56:39.087Z,0.00
2023-01-25T16:59:06.930Z,0.00
2023-01-25T17:01:33.746Z,0.00
2023-01-25T17:04:00.924Z,-0.10
2023-01-25T17:06:32.779Z,-0.10
2023-01-25T17:09:09.271Z,0.00
2023-01-25T17:11:42.413Z,0.00
2023-01-25T17:14:14.917Z,0.00
2023-01-25T17:16:41.714Z,0.00
2023-01-25T17:19:12.966Z,0.00
2023-01-25T17:21:39.974Z,0.00
2023-01-25T17:24:07.371Z,0.00
2023-01-25T17:26:34.240Z,0.00
2023-01-25T17:29:02.697Z,0.00
2023-01-25T17:31:33.163Z,0.00
2023-01-25T17:34:04.187Z,0.00
2023-01-25T17:36:30.985Z,0.00
2023-01-25T17:39:02.353Z,-0.10
2023-01-25T17:41:29.009Z,0.00
2023-01-25T17:43:55.652Z,0.00
2023-01-25T17:46:26.101Z,0.00
2023-01-25T17:48:53.852Z,0.00
2023-01-25T17:51:21.855Z,0.00
2023-01-25T17:53:50.195Z,0.00
2023-01-25T17:56:18.983Z,0.00
2023-01-25T17:58:45.735Z,0.00
2023-01-25T18:01:17.855Z,0.00
2023-01-25T18:03:45.617Z,0.00
2023-01-25T18:06:14.733Z,0.00
2023-01-25T18:08:49.555Z,0.00
2023-01-25T18:11:19.556Z,0.00
2023-01-25T18:13:48.870Z,0.00
2023-01-25T18:16:19.092Z,0.00
2023-01-25T18:18:47.153Z,0.00
2023-01-25T18:21:17.021Z,0.00
2023-01-25T18:23:47.129Z,0.00
2023-01-25T18:26:19.986Z,0.00
2023-01-25T18:28:47.077Z,0.00
2023-01-25T18:31:17.330Z,-0.10
2023-01-25T18:33:44.810Z,-0.10
2023-01-25T18:36:15.133Z,-0.10
2023-01-25T18:38:41.925Z,-0.10
2023-01-25T18:41:08.805Z,-0.10
2023-01-25T18:43:35.971Z,-0.10
2023-01-25T18:46:03.072Z,-0.10
2023-01-25T18:48:32.858Z,-0.10
2023-01-25T18:51:06.005Z,-0.10
2023-01-25T18:53:34.375Z,-0.10
2023-01-25T18:56:07.756Z,-0.20
2023-01-25T18:58:36.590Z,-0.20
2023-01-25T19:01:10.209Z,-0.20
2023-01-25T19:03:36.977Z,-0.10
2023-01-25T19:06:04.574Z,-0.10
2023-01-25T19:08:54.147Z,-0.10
2023-01-25T19:11:22.497Z,-0.20
2023-01-25T19:13:50.346Z,-0.20
2023-01-25T19:16:19.819Z,-0.20
2023-01-25T19:18:50.030Z,-0.20
2023-01-25T19:21:25.629Z,-0.20
2023-01-25T19:23:54.469Z,-0.20
2023-01-25T19:26:23.649Z,-0.20
2023-01-25T19:28:50.794Z,-0.30
2023-01-25T19:31:21.475Z,-0.30
2023-01-25T19:33:53.457Z,-0.30
2023-01-25T19:36:20.857Z,-0.30
2023-01-25T19:38:49.093Z,-0.30
2023-01-25T19:41:21.388Z,-0.30
2023-01-25T19:43:48.776Z,-0.30
2023-01-25T19:46:23.450Z,-0.30
2023-01-25T19:48:51.850Z,-0.30
2023-01-25T19:51:33.015Z,-0.40
2023-01-25T19:54:03.351Z,-0.30
2023-01-25T19:56:32.476Z,-0.30
2023-01-25T19:58:59.313Z,-0.30
2023-01-25T20:01:29.484Z,-0.40
2023-01-25T20:04:02.197Z,-0.30
2023-01-25T20:06:29.239Z,-0.30
2023-01-25T20:08:56.209Z,-0.30
2023-01-25T20:11:33.807Z,-0.30
2023-01-25T20:14:06.820Z,-0.40
2023-01-25T20:16:34.866Z,-0.40
2023-01-25T20:19:02.355Z,-0.40
2023-01-25T20:21:31.230Z,-0.40
2023-01-25T20:24:02.509Z,-0.40
2023-01-25T20:26:37.284Z,-0.40
2023-01-25T20:29:05.066Z,-0.40
2023-01-25T20:31:42.708Z,-0.40
2023-01-25T20:34:21.194Z,-0.40
2023-01-25T20:36:49.547Z,-0.40
2023-01-25T20:39:18.959Z,-0.40
2023-01-25T20:41:46.380Z,-0.40
2023-01-25T20:44:18.032Z,-0.40
2023-01-25T20:46:44.996Z,-0.40
2023-01-25T20:49:16.650Z,-0.40
2023-01-25T20:51:44.020Z,-0.40
2023-01-25T20:54:11.662Z,-0.40
2023-01-25T20:56:39.081Z,-0.40
2023-01-25T20:59:06.106Z,-0.40
2023-01-25T21:01:36.618Z,-0.40
2023-01-25T21:04:05.476Z,-0.40
2023-01-25T21:06:34.336Z,-0.30
2023-01-25T21:09:01.296Z,-0.30
2023-01-25T21:11:27.971Z,-0.30
2023-01-25T21:13:54.648Z,-0.30
2023-01-25T21:16:22.863Z,-0.30
2023-01-25T21:18:51.800Z,-0.40
2023-01-25T21:21:26.906Z,-0.40
2023-01-25T21:23:56.946Z,-0.40
2023-01-25T21:26:25.956Z,-0.40
2023-01-25T21:28:54.549Z,-0.40
2023-01-25T21:31:23.674Z,-0.40
2023-01-25T21:33:50.669Z,-0.40
2023-01-25T21:36:20.837Z,-0.30
2023-01-25T21:38:49.589Z,-0.30
2023-01-25T21:41:24.759Z,-0.30
2023-01-25T21:44:11.588Z,-0.40
2023-01-25T21:46:38.787Z,-0.30
2023-01-25T21:49:26.542Z,-0.40
2023-01-25T21:51:57.791Z,-0.40
2023-01-25T21:54:38.451Z,-0.40
2023-01-25T21:57:08.379Z,-0.40
2023-01-25T21:59:40.087Z,-0.40
2023-01-25T22:02:10.692Z,-0.30
2023-01-25T22:04:37.957Z,-0.30
2023-01-25T22:07:06.887Z,-0.30
2023-01-25T22:09:35.906Z,-0.30
2023-01-25T22:12:02.615Z,-0.30
2023-01-25T22:14:29.351Z,-0.30
2023-01-25T22:16:56.391Z,-0.30
2023-01-25T22:19:23.397Z,-0.30
2023-01-25T22:21:50.080Z,-0.40
2023-01-25T22:24:19.168Z,-0.40
2023-01-25T22:26:50.130Z,-0.40
2023-01-25T22:29:16.826Z,-0.40
2023-01-25T22:31:44.092Z,-0.40
2023-01-25T22:34:10.887Z,-0.30
2023-01-25T22:36:38.209Z,-0.30
2023-01-25T22:39:05.133Z,-0.30
2023-01-25T22:41:37.405Z,-0.30
2023-01-25T22:44:06.635Z,-0.40
2023-01-25T22:46:37.013Z,-0.40
2023-01-25T22:49:04.718Z,-0.40
2023-01-25T22:51:31.784Z,-0.40
2023-01-25T22:53:59.285Z,-0.30
2023-01-25T22:56:31.336Z,-0.30
2023-01-25T22:58:59.003Z,-0.30
2023-01-25T23:01:29.364Z,-0.30
2023-01-25T23:03:57.699Z,-0.30
2023-01-25T23:06:34.437Z,-0.40
2023-01-25T23:09:05.787Z,-0.30
2023-01-25T23:11:38.996Z,-0.30
2023-01-25T23:14:26.930Z,-0.30
2023-01-25T23:17:13.990Z,-0.30
2023-01-25T23:19:40.698Z,-0.40
2023-01-25T23:22:07.371Z,-0.40
2023-01-25T23:24:33.983Z,-0.40
2023-01-25T23:27:00.697Z,-0.40
2023-01-25T23:29:27.381Z,-0.40
2023-01-25T23:31:54.117Z,-0.40
2023-01-25T23:34:23.670Z,-0.40
2023-01-25T23:36:53.358Z,-0.40
2023-01-25T23:39:20.198Z,-0.40
2023-01-25T23:41:50.445Z,-0.40
2023-01-25T23:44:17.099Z,-0.40
2023-01-25T23:46:43.783Z,-0.40
2023-01-25T23:49:11.010Z,-0.40
2023-01-25T23:51:37.714Z,-0.40
2023-01-25T23:54:07.608Z,-0.40
2023-01-25T23:56:37.037Z,-0.30
2023-01-25T23:59:03.730Z,-0.30
